sensor_id;sensor_type;location;lat;lon;timestamp;pressure;altitude;pressure_sealevel;temperature;humidity
48053;BME280;33824;51.600;5.718;2022-10-16T00:00:35;100851.28;;;14.10;91.36
48053;BME280;33824;51.600;5.718;2022-10-16T00:03:20;100855.38;;;14.06;91.63
48053;BME280;33824;51.600;5.718;2022-10-16T00:05:46;100851.47;;;14.08;92.06
48053;BME280;33824;51.600;5.718;2022-10-16T00:08:12;100853.13;;;14.09;91.69
48053;BME280;33824;51.600;5.718;2022-10-16T00:10:38;100847.34;;;14.06;91.76
48053;BME280;33824;51.600;5.718;2022-10-16T00:13:04;100842.81;;;14.06;91.98
48053;BME280;33824;51.600;5.718;2022-10-16T00:15:33;100842.16;;;14.04;91.75
48053;BME280;33824;51.600;5.718;2022-10-16T00:18:02;100834.97;;;14.05;92.29
48053;BME280;33824;51.600;5.718;2022-10-16T00:20:27;100839.88;;;14.01;92.71
48053;BME280;33824;51.600;5.718;2022-10-16T00:22:53;100846.25;;;14.00;92.63
48053;BME280;33824;51.600;5.718;2022-10-16T00:25:18;100844.63;;;13.99;92.87
48053;BME280;33824;51.600;5.718;2022-10-16T00:27:44;100840.88;;;13.93;92.64
48053;BME280;33824;51.600;5.718;2022-10-16T00:30:09;100842.34;;;13.96;92.55
48053;BME280;33824;51.600;5.718;2022-10-16T00:32:35;100846.22;;;13.93;92.50
48053;BME280;33824;51.600;5.718;2022-10-16T00:35:00;100851.97;;;13.90;93.18
48053;BME280;33824;51.600;5.718;2022-10-16T00:37:26;100851.38;;;13.88;92.48
48053;BME280;33824;51.600;5.718;2022-10-16T00:39:51;100851.72;;;13.85;93.07
48053;BME280;33824;51.600;5.718;2022-10-16T00:42:18;100844.53;;;13.86;92.27
48053;BME280;33824;51.600;5.718;2022-10-16T00:44:50;100851.72;;;13.85;93.13
48053;BME280;33824;51.600;5.718;2022-10-16T00:47:32;100849.59;;;13.74;92.90
48053;BME280;33824;51.600;5.718;2022-10-16T00:50:07;100853.94;;;13.75;93.22
48053;BME280;33824;51.600;5.718;2022-10-16T00:52:33;100856.88;;;13.80;93.36
48053;BME280;33824;51.600;5.718;2022-10-16T00:55:00;100852.34;;;13.81;92.94
48053;BME280;33824;51.600;5.718;2022-10-16T00:57:26;100852.34;;;13.81;92.92
48053;BME280;33824;51.600;5.718;2022-10-16T00:59:53;100854.56;;;13.77;92.53
48053;BME280;33824;51.600;5.718;2022-10-16T01:02:18;100856.78;;;13.74;92.43
48053;BME280;33824;51.600;5.718;2022-10-16T01:04:49;100859.63;;;13.66;93.11
48053;BME280;33824;51.600;5.718;2022-10-16T01:13:17;100848.44;;;13.62;92.73
48053;BME280;33824;51.600;5.718;2022-10-16T01:15:56;100838.47;;;13.50;92.90
48053;BME280;33824;51.600;5.718;2022-10-16T01:18:34;100840.09;;;13.51;93.59
48053;BME280;33824;51.600;5.718;2022-10-16T01:21:05;100841.84;;;13.58;93.54
48053;BME280;33824;51.600;5.718;2022-10-16T01:23:47;100836.63;;;13.50;93.95
48053;BME280;33824;51.600;5.718;2022-10-16T01:29:13;100845.47;;;13.51;93.44
48053;BME280;33824;51.600;5.718;2022-10-16T01:31:41;100851.53;;;13.59;94.03
48053;BME280;33824;51.600;5.718;2022-10-16T01:34:17;100850.50;;;13.60;93.93
48053;BME280;33824;51.600;5.718;2022-10-16T01:36:57;100854.03;;;13.61;94.19
48053;BME280;33824;51.600;5.718;2022-10-16T01:39:29;100849.16;;;13.71;93.98
48053;BME280;33824;51.600;5.718;2022-10-16T01:42:03;100849.34;;;13.69;93.11
48053;BME280;33824;51.600;5.718;2022-10-16T01:44:32;100842.97;;;13.70;93.79
48053;BME280;33824;51.600;5.718;2022-10-16T01:46:59;100851.06;;;13.77;93.47
48053;BME280;33824;51.600;5.718;2022-10-16T01:49:31;100861.34;;;13.73;93.43
48053;BME280;33824;51.600;5.718;2022-10-16T01:51:59;100858.72;;;13.80;93.57
48053;BME280;33824;51.600;5.718;2022-10-16T01:54:28;100857.50;;;13.82;93.83
48053;BME280;33824;51.600;5.718;2022-10-16T01:56:56;100855.25;;;13.86;93.46
48053;BME280;33824;51.600;5.718;2022-10-16T01:59:26;100844.13;;;13.89;93.46
48053;BME280;33824;51.600;5.718;2022-10-16T02:01:56;100854.47;;;13.92;93.53
48053;BME280;33824;51.600;5.718;2022-10-16T02:04:27;100841.25;;;13.63;94.14
48053;BME280;33824;51.600;5.718;2022-10-16T02:06:53;100860.59;;;13.86;93.93
48053;BME280;33824;51.600;5.718;2022-10-16T02:09:19;100861.53;;;14.00;94.00
48053;BME280;33824;51.600;5.718;2022-10-16T02:11:45;100860.56;;;14.07;93.64
48053;BME280;33824;51.600;5.718;2022-10-16T02:14:11;100859.94;;;14.12;93.61
48053;BME280;33824;51.600;5.718;2022-10-16T02:16:41;100860.75;;;14.06;93.28
48053;BME280;33824;51.600;5.718;2022-10-16T02:19:08;100866.94;;;14.06;93.66
48053;BME280;33824;51.600;5.718;2022-10-16T02:24:34;100867.44;;;13.88;93.27
48053;BME280;33824;51.600;5.718;2022-10-16T02:27:05;100860.91;;;13.98;93.31
48053;BME280;33824;51.600;5.718;2022-10-16T02:29:36;100850.56;;;13.94;92.91
48053;BME280;33824;51.600;5.718;2022-10-16T02:32:05;100860.66;;;13.92;92.75
48053;BME280;33824;51.600;5.718;2022-10-16T02:34:33;100858.34;;;13.89;93.15
48053;BME280;33824;51.600;5.718;2022-10-16T02:37:02;100862.28;;;13.87;92.76
48053;BME280;33824;51.600;5.718;2022-10-16T02:39:29;100855.47;;;13.84;92.75
48053;BME280;33824;51.600;5.718;2022-10-16T02:41:55;100862.00;;;13.82;92.50
48053;BME280;33824;51.600;5.718;2022-10-16T02:44:20;100854.38;;;13.79;92.43
48053;BME280;33824;51.600;5.718;2022-10-16T02:46:46;100863.19;;;13.73;92.89
48053;BME280;33824;51.600;5.718;2022-10-16T02:49:11;100870.41;;;13.72;92.73
48053;BME280;33824;51.600;5.718;2022-10-16T02:51:37;100866.25;;;13.70;92.62
48053;BME280;33824;51.600;5.718;2022-10-16T02:54:03;100862.94;;;13.68;92.52
48053;BME280;33824;51.600;5.718;2022-10-16T02:56:29;100849.09;;;13.64;92.71
48053;BME280;33824;51.600;5.718;2022-10-16T02:58:55;100850.94;;;13.64;92.77
48053;BME280;33824;51.600;5.718;2022-10-16T03:01:21;100859.38;;;13.61;92.71
48053;BME280;33824;51.600;5.718;2022-10-16T03:03:46;100848.00;;;13.59;92.87
48053;BME280;33824;51.600;5.718;2022-10-16T03:06:12;100838.53;;;13.56;92.83
48053;BME280;33824;51.600;5.718;2022-10-16T03:08:38;100853.13;;;13.54;92.91
48053;BME280;33824;51.600;5.718;2022-10-16T03:11:03;100859.34;;;13.54;92.82
48053;BME280;33824;51.600;5.718;2022-10-16T03:13:29;100865.06;;;13.51;93.22
48053;BME280;33824;51.600;5.718;2022-10-16T03:15:54;100873.91;;;13.52;92.75
48053;BME280;33824;51.600;5.718;2022-10-16T03:18:20;100878.66;;;13.50;93.25
48053;BME280;33824;51.600;5.718;2022-10-16T03:20:45;100880.69;;;13.48;93.56
48053;BME280;33824;51.600;5.718;2022-10-16T03:23:11;100875.31;;;13.48;93.12
48053;BME280;33824;51.600;5.718;2022-10-16T03:25:36;100868.13;;;13.48;93.27
48053;BME280;33824;51.600;5.718;2022-10-16T03:28:02;100886.03;;;13.48;93.09
48053;BME280;33824;51.600;5.718;2022-10-16T03:30:28;100890.94;;;13.44;93.70
48053;BME280;33824;51.600;5.718;2022-10-16T03:32:54;100890.78;;;13.45;93.16
48053;BME280;33824;51.600;5.718;2022-10-16T03:35:21;100884.97;;;13.42;93.15
48053;BME280;33824;51.600;5.718;2022-10-16T03:37:46;100897.72;;;13.40;93.23
48053;BME280;33824;51.600;5.718;2022-10-16T03:40:13;100896.88;;;13.39;93.60
48053;BME280;33824;51.600;5.718;2022-10-16T03:42:39;100897.53;;;13.41;94.13
48053;BME280;33824;51.600;5.718;2022-10-16T03:45:04;100903.72;;;13.42;93.97
48053;BME280;33824;51.600;5.718;2022-10-16T03:47:30;100894.47;;;13.44;93.73
48053;BME280;33824;51.600;5.718;2022-10-16T03:49:58;100894.28;;;13.46;93.84
48053;BME280;33824;51.600;5.718;2022-10-16T03:52:24;100897.31;;;13.43;93.98
48053;BME280;33824;51.600;5.718;2022-10-16T03:54:49;100907.03;;;13.44;93.72
48053;BME280;33824;51.600;5.718;2022-10-16T03:57:15;100905.56;;;13.41;94.04
48053;BME280;33824;51.600;5.718;2022-10-16T03:59:40;100910.53;;;13.44;94.08
48053;BME280;33824;51.600;5.718;2022-10-16T04:02:05;100912.59;;;13.42;94.38
48053;BME280;33824;51.600;5.718;2022-10-16T04:04:31;100904.56;;;13.42;94.52
48053;BME280;33824;51.600;5.718;2022-10-16T04:06:56;100911.38;;;13.45;93.97
48053;BME280;33824;51.600;5.718;2022-10-16T04:09:22;100905.16;;;13.44;94.17
48053;BME280;33824;51.600;5.718;2022-10-16T04:11:49;100904.34;;;13.44;94.39
48053;BME280;33824;51.600;5.718;2022-10-16T04:14:14;100904.78;;;13.48;94.42
48053;BME280;33824;51.600;5.718;2022-10-16T04:16:40;100908.50;;;13.47;94.52
48053;BME280;33824;51.600;5.718;2022-10-16T04:19:05;100910.97;;;13.48;94.82
48053;BME280;33824;51.600;5.718;2022-10-16T04:21:31;100912.66;;;13.49;94.55
48053;BME280;33824;51.600;5.718;2022-10-16T04:23:56;100913.47;;;13.50;94.59
48053;BME280;33824;51.600;5.718;2022-10-16T04:26:22;100918.84;;;13.50;94.62
48053;BME280;33824;51.600;5.718;2022-10-16T04:28:47;100911.81;;;13.49;94.87
48053;BME280;33824;51.600;5.718;2022-10-16T04:31:13;100925.19;;;13.49;95.01
48053;BME280;33824;51.600;5.718;2022-10-16T04:33:38;100931.19;;;13.51;94.82
48053;BME280;33824;51.600;5.718;2022-10-16T04:36:04;100925.03;;;13.50;94.87
48053;BME280;33824;51.600;5.718;2022-10-16T04:38:29;100924.63;;;13.53;94.61
48053;BME280;33824;51.600;5.718;2022-10-16T04:40:55;100923.63;;;13.54;94.70
48053;BME280;33824;51.600;5.718;2022-10-16T04:43:21;100927.94;;;13.55;94.94
48053;BME280;33824;51.600;5.718;2022-10-16T04:45:47;100929.59;;;13.56;94.80
48053;BME280;33824;51.600;5.718;2022-10-16T04:48:12;100931.66;;;13.54;94.97
48053;BME280;33824;51.600;5.718;2022-10-16T04:50:38;100935.34;;;13.53;94.77
48053;BME280;33824;51.600;5.718;2022-10-16T04:53:03;100936.19;;;13.54;94.50
48053;BME280;33824;51.600;5.718;2022-10-16T04:55:29;100942.56;;;13.53;94.60
48053;BME280;33824;51.600;5.718;2022-10-16T04:57:54;100950.78;;;13.51;94.80
48053;BME280;33824;51.600;5.718;2022-10-16T05:00:20;100947.09;;;13.52;94.69
48053;BME280;33824;51.600;5.718;2022-10-16T05:02:46;100952.63;;;13.51;94.74
48053;BME280;33824;51.600;5.718;2022-10-16T05:05:11;100947.66;;;13.48;94.71
48053;BME280;33824;51.600;5.718;2022-10-16T05:07:37;100948.47;;;13.48;95.38
48053;BME280;33824;51.600;5.718;2022-10-16T05:10:03;100957.16;;;13.50;94.99
48053;BME280;33824;51.600;5.718;2022-10-16T05:12:29;100959.19;;;13.48;95.09
48053;BME280;33824;51.600;5.718;2022-10-16T05:14:54;100954.41;;;13.43;95.13
48053;BME280;33824;51.600;5.718;2022-10-16T05:17:24;100958.56;;;13.46;94.98
48053;BME280;33824;51.600;5.718;2022-10-16T05:19:50;100970.47;;;13.43;95.44
48053;BME280;33824;51.600;5.718;2022-10-16T05:22:15;100971.69;;;13.41;95.06
48053;BME280;33824;51.600;5.718;2022-10-16T05:24:41;100986.47;;;13.37;95.47
48053;BME280;33824;51.600;5.718;2022-10-16T05:27:07;100979.84;;;13.33;95.54
48053;BME280;33824;51.600;5.718;2022-10-16T05:29:32;100980.66;;;13.33;95.62
48053;BME280;33824;51.600;5.718;2022-10-16T05:31:58;100984.56;;;13.31;96.59
48053;BME280;33824;51.600;5.718;2022-10-16T05:34:23;100982.34;;;13.34;95.41
48053;BME280;33824;51.600;5.718;2022-10-16T05:36:49;100985.00;;;13.34;95.53
48053;BME280;33824;51.600;5.718;2022-10-16T05:39:15;100988.53;;;13.35;95.44
48053;BME280;33824;51.600;5.718;2022-10-16T05:41:41;100998.78;;;13.31;96.49
48053;BME280;33824;51.600;5.718;2022-10-16T05:44:06;100988.88;;;13.32;96.17
48053;BME280;33824;51.600;5.718;2022-10-16T05:46:32;101009.28;;;13.33;96.23
48053;BME280;33824;51.600;5.718;2022-10-16T05:48:58;101013.63;;;13.34;96.39
48053;BME280;33824;51.600;5.718;2022-10-16T05:51:24;101022.88;;;13.31;96.64
48053;BME280;33824;51.600;5.718;2022-10-16T05:53:49;101021.84;;;13.32;96.76
48053;BME280;33824;51.600;5.718;2022-10-16T05:56:15;101033.59;;;13.31;96.46
48053;BME280;33824;51.600;5.718;2022-10-16T05:58:41;101045.94;;;13.32;96.28
48053;BME280;33824;51.600;5.718;2022-10-16T06:01:11;101049.84;;;13.30;96.44
48053;BME280;33824;51.600;5.718;2022-10-16T06:03:37;101057.69;;;13.31;96.91
48053;BME280;33824;51.600;5.718;2022-10-16T06:06:16;101062.94;;;13.25;95.87
48053;BME280;33824;51.600;5.718;2022-10-16T06:08:43;101057.69;;;13.31;96.35
48053;BME280;33824;51.600;5.718;2022-10-16T06:11:16;101066.09;;;13.28;96.11
48053;BME280;33824;51.600;5.718;2022-10-16T06:13:42;101066.91;;;13.29;96.35
48053;BME280;33824;51.600;5.718;2022-10-16T06:16:09;101064.91;;;13.31;96.22
48053;BME280;33824;51.600;5.718;2022-10-16T06:18:35;101074.78;;;13.30;96.04
48053;BME280;33824;51.600;5.718;2022-10-16T06:21:10;101073.19;;;13.21;95.54
48053;BME280;33824;51.600;5.718;2022-10-16T06:23:36;101078.00;;;13.26;95.68
48053;BME280;33824;51.600;5.718;2022-10-16T06:26:06;101079.22;;;13.23;95.46
48053;BME280;33824;51.600;5.718;2022-10-16T06:28:32;101087.50;;;13.28;95.71
48053;BME280;33824;51.600;5.718;2022-10-16T06:30:59;101089.34;;;13.28;95.78
48053;BME280;33824;51.600;5.718;2022-10-16T06:33:25;101087.34;;;13.30;95.95
48053;BME280;33824;51.600;5.718;2022-10-16T06:35:50;101083.81;;;13.29;95.95
48053;BME280;33824;51.600;5.718;2022-10-16T06:38:15;101090.00;;;13.30;95.56
48053;BME280;33824;51.600;5.718;2022-10-16T06:40:41;101091.84;;;13.29;95.24
48053;BME280;33824;51.600;5.718;2022-10-16T06:43:06;101109.59;;;13.30;96.57
48053;BME280;33824;51.600;5.718;2022-10-16T06:45:32;101110.97;;;13.41;96.47
48053;BME280;33824;51.600;5.718;2022-10-16T06:47:57;101105.31;;;13.51;96.29
48053;BME280;33824;51.600;5.718;2022-10-16T06:50:23;101114.06;;;13.59;96.69
48053;BME280;33824;51.600;5.718;2022-10-16T06:52:49;101117.94;;;13.71;96.76
48053;BME280;33824;51.600;5.718;2022-10-16T06:55:14;101118.13;;;13.84;96.60
48053;BME280;33824;51.600;5.718;2022-10-16T06:57:40;101125.47;;;13.97;96.45
48053;BME280;33824;51.600;5.718;2022-10-16T07:00:06;101126.00;;;14.07;96.27
48053;BME280;33824;51.600;5.718;2022-10-16T07:02:33;101127.34;;;14.18;96.15
48053;BME280;33824;51.600;5.718;2022-10-16T07:04:59;101125.63;;;14.31;96.17
48053;BME280;33824;51.600;5.718;2022-10-16T07:07:24;101129.88;;;14.40;95.99
48053;BME280;33824;51.600;5.718;2022-10-16T07:09:52;101138.44;;;14.51;95.65
48053;BME280;33824;51.600;5.718;2022-10-16T07:12:17;101148.63;;;14.62;95.02
48053;BME280;33824;51.600;5.718;2022-10-16T07:14:43;101145.00;;;14.69;94.84
48053;BME280;33824;51.600;5.718;2022-10-16T07:17:08;101153.22;;;14.89;94.89
48053;BME280;33824;51.600;5.718;2022-10-16T07:19:34;101144.41;;;14.95;94.12
48053;BME280;33824;51.600;5.718;2022-10-16T07:22:00;101150.69;;;15.09;93.54
48053;BME280;33824;51.600;5.718;2022-10-16T07:24:26;101160.06;;;15.19;93.33
48053;BME280;33824;51.600;5.718;2022-10-16T07:26:51;101167.28;;;15.19;92.81
48053;BME280;33824;51.600;5.718;2022-10-16T07:29:19;101168.78;;;15.28;92.67
48053;BME280;33824;51.600;5.718;2022-10-16T07:31:46;101176.31;;;15.39;92.29
48053;BME280;33824;51.600;5.718;2022-10-16T07:34:12;101173.22;;;15.42;91.45
48053;BME280;33824;51.600;5.718;2022-10-16T07:36:39;101185.28;;;15.53;91.00
48053;BME280;33824;51.600;5.718;2022-10-16T07:39:04;101186.97;;;15.54;90.89
48053;BME280;33824;51.600;5.718;2022-10-16T07:41:30;101181.00;;;15.58;90.66
48053;BME280;33824;51.600;5.718;2022-10-16T07:43:58;101195.50;;;15.64;90.23
48053;BME280;33824;51.600;5.718;2022-10-16T07:46:26;101193.28;;;15.74;90.04
48053;BME280;33824;51.600;5.718;2022-10-16T07:48:52;101199.53;;;15.81;89.74
48053;BME280;33824;51.600;5.718;2022-10-16T07:51:21;101198.94;;;15.86;88.94
48053;BME280;33824;51.600;5.718;2022-10-16T07:53:47;101214.47;;;15.90;88.70
48053;BME280;33824;51.600;5.718;2022-10-16T07:56:13;101213.09;;;16.07;88.50
48053;BME280;33824;51.600;5.718;2022-10-16T07:58:38;101215.38;;;16.10;87.86
48053;BME280;33824;51.600;5.718;2022-10-16T08:01:09;101214.97;;;16.13;87.70
48053;BME280;33824;51.600;5.718;2022-10-16T08:03:35;101213.78;;;16.29;87.89
48053;BME280;33824;51.600;5.718;2022-10-16T08:06:01;101217.13;;;16.38;87.29
48053;BME280;33824;51.600;5.718;2022-10-16T08:08:27;101224.41;;;16.50;86.59
48053;BME280;33824;51.600;5.718;2022-10-16T08:10:53;101232.25;;;16.45;86.56
48053;BME280;33824;51.600;5.718;2022-10-16T08:13:20;101231.06;;;16.54;86.45
48053;BME280;33824;51.600;5.718;2022-10-16T08:15:46;101231.94;;;16.68;85.79
48053;BME280;33824;51.600;5.718;2022-10-16T08:18:13;101239.81;;;16.76;85.38
48053;BME280;33824;51.600;5.718;2022-10-16T08:20:40;101247.28;;;16.81;85.21
48053;BME280;33824;51.600;5.718;2022-10-16T08:23:05;101243.97;;;16.98;84.99
48053;BME280;33824;51.600;5.718;2022-10-16T08:25:35;101257.22;;;16.93;84.14
48053;BME280;33824;51.600;5.718;2022-10-16T08:28:04;101250.81;;;16.94;83.25
48053;BME280;33824;51.600;5.718;2022-10-16T08:30:31;101258.25;;;16.86;83.18
48053;BME280;33824;51.600;5.718;2022-10-16T08:32:56;101255.13;;;16.62;83.47
48053;BME280;33824;51.600;5.718;2022-10-16T08:35:23;101255.31;;;16.61;83.53
48053;BME280;33824;51.600;5.718;2022-10-16T08:37:49;101265.50;;;16.78;83.14
48053;BME280;33824;51.600;5.718;2022-10-16T08:45:30;101276.75;;;17.21;83.04
48053;BME280;33824;51.600;5.718;2022-10-16T08:48:14;101278.63;;;17.34;82.25
48053;BME280;33824;51.600;5.718;2022-10-16T08:50:43;101281.94;;;17.36;82.07
48053;BME280;33824;51.600;5.718;2022-10-16T08:53:40;101283.38;;;17.32;81.52
48053;BME280;33824;51.600;5.718;2022-10-16T08:56:07;101286.91;;;17.33;81.87
48053;BME280;33824;51.600;5.718;2022-10-16T08:58:32;101290.66;;;17.64;81.33
48053;BME280;33824;51.600;5.718;2022-10-16T09:01:01;101291.25;;;17.47;79.76
48053;BME280;33824;51.600;5.718;2022-10-16T09:12:07;101304.31;;;17.69;78.13
48053;BME280;33824;51.600;5.718;2022-10-16T09:18:00;101312.81;;;17.93;78.60
48053;BME280;33824;51.600;5.718;2022-10-16T09:23:26;101324.13;;;18.28;77.80
48053;BME280;33824;51.600;5.718;2022-10-16T09:25:52;101325.75;;;18.35;77.73
48053;BME280;33824;51.600;5.718;2022-10-16T09:28:18;101323.88;;;18.49;77.08
48053;BME280;33824;51.600;5.718;2022-10-16T09:30:45;101312.44;;;18.53;75.95
48053;BME280;33824;51.600;5.718;2022-10-16T09:33:12;101327.78;;;18.53;75.98
48053;BME280;33824;51.600;5.718;2022-10-16T09:35:40;101331.03;;;18.75;75.83
48053;BME280;33824;51.600;5.718;2022-10-16T09:38:07;101332.66;;;18.82;74.68
48053;BME280;33824;51.600;5.718;2022-10-16T09:40:36;101330.59;;;18.78;73.74
48053;BME280;33824;51.600;5.718;2022-10-16T09:48:25;101328.19;;;19.01;74.36
48053;BME280;33824;51.600;5.718;2022-10-16T09:50:56;101330.50;;;18.97;73.42
48053;BME280;33824;51.600;5.718;2022-10-16T09:53:23;101327.09;;;19.08;72.51
48053;BME280;33824;51.600;5.718;2022-10-16T09:55:52;101336.94;;;18.96;73.00
48053;BME280;33824;51.600;5.718;2022-10-16T09:58:22;101338.16;;;19.00;72.60
48053;BME280;33824;51.600;5.718;2022-10-16T10:00:50;101340.94;;;19.18;72.01
48053;BME280;33824;51.600;5.718;2022-10-16T10:03:38;101338.09;;;19.07;70.70
48053;BME280;33824;51.600;5.718;2022-10-16T10:06:21;101342.09;;;19.04;70.87
48053;BME280;33824;51.600;5.718;2022-10-16T10:11:48;101336.56;;;19.55;70.89
48053;BME280;33824;51.600;5.718;2022-10-16T10:22:40;101347.03;;;19.70;67.61
48053;BME280;33824;51.600;5.718;2022-10-16T10:25:15;101349.84;;;19.82;69.17
48053;BME280;33824;51.600;5.718;2022-10-16T10:27:50;101351.81;;;19.68;68.41
48053;BME280;33824;51.600;5.718;2022-10-16T10:30:25;101351.94;;;19.80;67.51
48053;BME280;33824;51.600;5.718;2022-10-16T10:33:13;101365.53;;;19.73;68.43
48053;BME280;33824;51.600;5.718;2022-10-16T10:35:49;101367.78;;;19.76;68.57
48053;BME280;33824;51.600;5.718;2022-10-16T10:38:34;101364.19;;;19.82;67.78
48053;BME280;33824;51.600;5.718;2022-10-16T10:44:16;101378.47;;;20.14;68.91
48053;BME280;33824;51.600;5.718;2022-10-16T10:46:56;101372.25;;;20.32;68.58
48053;BME280;33824;51.600;5.718;2022-10-16T10:50:02;101366.63;;;20.33;66.57
48053;BME280;33824;51.600;5.718;2022-10-16T10:52:53;101364.00;;;20.45;67.24
48053;BME280;33824;51.600;5.718;2022-10-16T10:55:42;101360.97;;;20.53;65.95
48053;BME280;33824;51.600;5.718;2022-10-16T11:01:04;101354.88;;;20.57;64.56
48053;BME280;33824;51.600;5.718;2022-10-16T11:06:29;101360.81;;;20.66;64.46
48053;BME280;33824;51.600;5.718;2022-10-16T11:09:06;101372.31;;;20.80;64.49
48053;BME280;33824;51.600;5.718;2022-10-16T11:11:44;101370.91;;;21.07;65.39
48053;BME280;33824;51.600;5.718;2022-10-16T11:14:16;101372.41;;;21.21;65.44
48053;BME280;33824;51.600;5.718;2022-10-16T11:16:56;101366.47;;;21.13;64.13
48053;BME280;33824;51.600;5.718;2022-10-16T11:19:44;101371.06;;;21.12;64.41
48053;BME280;33824;51.600;5.718;2022-10-16T11:22:21;101365.34;;;21.32;63.73
48053;BME280;33824;51.600;5.718;2022-10-16T11:24:59;101361.00;;;21.42;63.11
48053;BME280;33824;51.600;5.718;2022-10-16T11:30:23;101362.56;;;21.62;63.04
48053;BME280;33824;51.600;5.718;2022-10-16T11:35:51;101367.41;;;21.60;60.81
48053;BME280;33824;51.600;5.718;2022-10-16T11:40:59;101356.09;;;21.86;61.60
48053;BME280;33824;51.600;5.718;2022-10-16T11:43:41;101370.38;;;21.81;58.20
48053;BME280;33824;51.600;5.718;2022-10-16T11:46:10;101372.66;;;21.01;55.79
48053;BME280;33824;51.600;5.718;2022-10-16T11:51:36;101386.41;;;21.18;60.64
48053;BME280;33824;51.600;5.718;2022-10-16T11:54:16;101390.34;;;21.22;61.44
48053;BME280;33824;51.600;5.718;2022-10-16T11:56:49;101391.28;;;21.28;62.07
48053;BME280;33824;51.600;5.718;2022-10-16T11:59:42;101387.78;;;21.50;61.15
48053;BME280;33824;51.600;5.718;2022-10-16T12:02:49;101387.97;;;21.79;60.56
48053;BME280;33824;51.600;5.718;2022-10-16T12:05:52;101388.13;;;22.19;58.65
48053;BME280;33824;51.600;5.718;2022-10-16T12:08:20;101383.81;;;22.69;59.44
48053;BME280;33824;51.600;5.718;2022-10-16T12:10:47;101385.75;;;22.97;58.84
48053;BME280;33824;51.600;5.718;2022-10-16T12:13:36;101375.34;;;22.94;56.54
48053;BME280;33824;51.600;5.718;2022-10-16T12:18:39;101381.22;;;23.03;56.38
48053;BME280;33824;51.600;5.718;2022-10-16T12:21:05;101382.75;;;22.99;55.64
48053;BME280;33824;51.600;5.718;2022-10-16T12:23:36;101388.38;;;22.80;53.89
48053;BME280;33824;51.600;5.718;2022-10-16T12:26:03;101386.13;;;22.89;54.55
48053;BME280;33824;51.600;5.718;2022-10-16T12:28:31;101380.13;;;22.75;54.43
48053;BME280;33824;51.600;5.718;2022-10-16T12:31:00;101396.09;;;22.60;54.51
48053;BME280;33824;51.600;5.718;2022-10-16T12:33:32;101386.41;;;22.53;53.94
48053;BME280;33824;51.600;5.718;2022-10-16T12:36:00;101390.06;;;22.58;54.12
48053;BME280;33824;51.600;5.718;2022-10-16T12:41:10;101394.66;;;22.81;54.97
48053;BME280;33824;51.600;5.718;2022-10-16T12:49:06;101391.03;;;22.64;54.16
48053;BME280;33824;51.600;5.718;2022-10-16T12:54:05;101385.63;;;22.40;57.23
48053;BME280;33824;51.600;5.718;2022-10-16T12:59:53;101388.72;;;22.09;56.89
48053;BME280;33824;51.600;5.718;2022-10-16T13:02:45;101399.09;;;22.24;57.72
48053;BME280;33824;51.600;5.718;2022-10-16T13:05:35;101395.31;;;22.48;57.05
48053;BME280;33824;51.600;5.718;2022-10-16T13:08:29;101395.75;;;22.68;56.62
48053;BME280;33824;51.600;5.718;2022-10-16T13:16:50;101382.50;;;22.72;56.17
48053;BME280;33824;51.600;5.718;2022-10-16T13:19:29;101384.44;;;22.48;56.75
48053;BME280;33824;51.600;5.718;2022-10-16T13:22:08;101381.47;;;22.38;55.08
48053;BME280;33824;51.600;5.718;2022-10-16T13:24:52;101390.47;;;22.15;55.02
48053;BME280;33824;51.600;5.718;2022-10-16T13:30:24;101403.91;;;21.75;55.01
48053;BME280;33824;51.600;5.718;2022-10-16T13:32:59;101389.69;;;21.62;55.52
48053;BME280;33824;51.600;5.718;2022-10-16T13:35:28;101394.19;;;21.56;56.57
48053;BME280;33824;51.600;5.718;2022-10-16T13:38:15;101390.97;;;21.47;57.24
48053;BME280;33824;51.600;5.718;2022-10-16T13:41:01;101402.91;;;21.58;57.42
48053;BME280;33824;51.600;5.718;2022-10-16T13:43:46;101406.25;;;21.72;57.75
48053;BME280;33824;51.600;5.718;2022-10-16T13:46:16;101413.38;;;21.96;57.45
48053;BME280;33824;51.600;5.718;2022-10-16T13:48:42;101418.00;;;22.07;57.13
48053;BME280;33824;51.600;5.718;2022-10-16T13:51:15;101413.88;;;22.05;56.30
48053;BME280;33824;51.600;5.718;2022-10-16T13:53:42;101411.75;;;22.07;56.07
48053;BME280;33824;51.600;5.718;2022-10-16T13:56:11;101414.69;;;21.93;56.00
48053;BME280;33824;51.600;5.718;2022-10-16T13:58:37;101419.38;;;21.86;56.14
48053;BME280;33824;51.600;5.718;2022-10-16T14:01:16;101416.88;;;21.85;57.83
48053;BME280;33824;51.600;5.718;2022-10-16T14:03:44;101420.59;;;22.02;57.05
48053;BME280;33824;51.600;5.718;2022-10-16T14:06:18;101413.63;;;21.94;57.48
48053;BME280;33824;51.600;5.718;2022-10-16T14:09:05;101413.63;;;21.94;57.47
48053;BME280;33824;51.600;5.718;2022-10-16T14:11:32;101414.22;;;21.96;56.11
48053;BME280;33824;51.600;5.718;2022-10-16T14:14:00;101416.34;;;22.06;57.30
48053;BME280;33824;51.600;5.718;2022-10-16T14:16:29;101422.16;;;22.10;57.57
48053;BME280;33824;51.600;5.718;2022-10-16T14:19:03;101414.56;;;22.12;57.86
48053;BME280;33824;51.600;5.718;2022-10-16T14:21:31;101407.47;;;22.34;57.75
48053;BME280;33824;51.600;5.718;2022-10-16T14:23:57;101422.50;;;22.36;57.89
48053;BME280;33824;51.600;5.718;2022-10-16T14:26:26;101417.50;;;22.33;57.29
48053;BME280;33824;51.600;5.718;2022-10-16T14:29:14;101416.72;;;21.98;57.22
48053;BME280;33824;51.600;5.718;2022-10-16T14:31:42;101418.59;;;21.97;57.63
48053;BME280;33824;51.600;5.718;2022-10-16T14:34:32;101402.84;;;21.65;58.28
48053;BME280;33824;51.600;5.718;2022-10-16T14:37:01;101402.34;;;21.68;58.17